sensor_id;sensor_type;location;lat;lon;timestamp;P1;durP1;ratioP1;P2;durP2;ratioP2
8714;SDS011;4394;51.208;8.904;2023-02-28T00:01:08;1.50;;;1.30;;
8714;SDS011;4394;51.208;8.904;2023-02-28T00:03:56;2.50;;;2.00;;
8714;SDS011;4394;51.208;8.904;2023-02-28T00:06:44;2.20;;;1.83;;
8714;SDS011;4394;51.208;8.904;2023-02-28T00:09:32;3.20;;;1.50;;
8714;SDS011;4394;51.208;8.904;2023-02-28T00:12:21;2.27;;;1.33;;
8714;SDS011;4394;51.208;8.904;2023-02-28T00:15:10;2.83;;;1.70;;
8714;SDS011;4394;51.208;8.904;2023-02-28T00:17:58;2.17;;;1.60;;
8714;SDS011;4394;51.208;8.904;2023-02-28T00:20:46;1.40;;;1.30;;
8714;SDS011;4394;51.208;8.904;2023-02-28T00:23:34;3.20;;;1.60;;
8714;SDS011;4394;51.208;8.904;2023-02-28T00:26:22;3.67;;;1.50;;
8714;SDS011;4394;51.208;8.904;2023-02-28T00:29:11;1.97;;;1.40;;
8714;SDS011;4394;51.208;8.904;2023-02-28T00:31:59;3.37;;;1.60;;
8714;SDS011;4394;51.208;8.904;2023-02-28T00:34:47;1.60;;;1.50;;
8714;SDS011;4394;51.208;8.904;2023-02-28T00:37:35;2.30;;;1.70;;
8714;SDS011;4394;51.208;8.904;2023-02-28T00:40:23;2.10;;;1.43;;
8714;SDS011;4394;51.208;8.904;2023-02-28T00:43:11;1.60;;;1.50;;
8714;SDS011;4394;51.208;8.904;2023-02-28T00:46:00;1.33;;;1.23;;
8714;SDS011;4394;51.208;8.904;2023-02-28T00:48:48;2.93;;;1.63;;
8714;SDS011;4394;51.208;8.904;2023-02-28T00:51:36;3.33;;;1.80;;
8714;SDS011;4394;51.208;8.904;2023-02-28T00:54:24;1.47;;;1.37;;
8714;SDS011;4394;51.208;8.904;2023-02-28T00:57:12;3.57;;;1.20;;
8714;SDS011;4394;51.208;8.904;2023-02-28T01:00:00;2.57;;;1.43;;
8714;SDS011;4394;51.208;8.904;2023-02-28T01:02:51;2.23;;;1.60;;
8714;SDS011;4394;51.208;8.904;2023-02-28T01:05:39;1.67;;;1.50;;
8714;SDS011;4394;51.208;8.904;2023-02-28T01:08:27;1.77;;;1.67;;
8714;SDS011;4394;51.208;8.904;2023-02-28T01:11:15;2.27;;;1.50;;
8714;SDS011;4394;51.208;8.904;2023-02-28T01:14:04;2.03;;;1.70;;
8714;SDS011;4394;51.208;8.904;2023-02-28T01:16:52;2.53;;;1.83;;
8714;SDS011;4394;51.208;8.904;2023-02-28T01:19:41;2.63;;;1.70;;
8714;SDS011;4394;51.208;8.904;2023-02-28T01:22:29;2.70;;;1.77;;
8714;SDS011;4394;51.208;8.904;2023-02-28T01:25:17;2.33;;;1.90;;
8714;SDS011;4394;51.208;8.904;2023-02-28T01:28:05;2.77;;;1.87;;
8714;SDS011;4394;51.208;8.904;2023-02-28T01:30:53;2.13;;;1.83;;
8714;SDS011;4394;51.208;8.904;2023-02-28T01:33:41;1.77;;;1.67;;
8714;SDS011;4394;51.208;8.904;2023-02-28T01:36:30;3.07;;;1.90;;
8714;SDS011;4394;51.208;8.904;2023-02-28T01:39:18;2.40;;;1.73;;
8714;SDS011;4394;51.208;8.904;2023-02-28T01:42:07;2.63;;;1.60;;
8714;SDS011;4394;51.208;8.904;2023-02-28T01:45:04;1.47;;;1.37;;
8714;SDS011;4394;51.208;8.904;2023-02-28T01:48:05;2.90;;;1.80;;
8714;SDS011;4394;51.208;8.904;2023-02-28T01:50:56;1.70;;;1.60;;
8714;SDS011;4394;51.208;8.904;2023-02-28T01:53:51;2.50;;;1.60;;
8714;SDS011;4394;51.208;8.904;2023-02-28T01:56:43;1.77;;;1.67;;
8714;SDS011;4394;51.208;8.904;2023-02-28T01:59:34;1.70;;;1.60;;
8714;SDS011;4394;51.208;8.904;2023-02-28T02:02:32;1.97;;;1.53;;
8714;SDS011;4394;51.208;8.904;2023-02-28T02:05:20;2.57;;;1.80;;
8714;SDS011;4394;51.208;8.904;2023-02-28T02:08:11;3.17;;;1.93;;
8714;SDS011;4394;51.208;8.904;2023-02-28T02:11:02;2.90;;;2.27;;
8714;SDS011;4394;51.208;8.904;2023-02-28T02:13:56;2.40;;;1.70;;
8714;SDS011;4394;51.208;8.904;2023-02-28T02:17:04;3.50;;;1.90;;
8714;SDS011;4394;51.208;8.904;2023-02-28T02:20:16;3.37;;;1.87;;
8714;SDS011;4394;51.208;8.904;2023-02-28T02:23:23;1.83;;;1.73;;
8714;SDS011;4394;51.208;8.904;2023-02-28T02:26:42;2.10;;;1.70;;
8714;SDS011;4394;51.208;8.904;2023-02-28T02:29:41;2.80;;;1.90;;
8714;SDS011;4394;51.208;8.904;2023-02-28T02:32:54;3.13;;;1.93;;
8714;SDS011;4394;51.208;8.904;2023-02-28T02:36:13;2.43;;;1.83;;
8714;SDS011;4394;51.208;8.904;2023-02-28T02:39:07;1.60;;;1.50;;
8714;SDS011;4394;51.208;8.904;2023-02-28T02:42:01;3.23;;;1.37;;
8714;SDS011;4394;51.208;8.904;2023-02-28T02:44:55;2.13;;;1.57;;
8714;SDS011;4394;51.208;8.904;2023-02-28T02:47:48;2.00;;;1.60;;
8714;SDS011;4394;51.208;8.904;2023-02-28T02:50:38;1.70;;;1.50;;
8714;SDS011;4394;51.208;8.904;2023-02-28T02:53:32;1.77;;;1.40;;
8714;SDS011;4394;51.208;8.904;2023-02-28T02:56:24;2.70;;;1.40;;
8714;SDS011;4394;51.208;8.904;2023-02-28T02:59:15;2.90;;;1.60;;
8714;SDS011;4394;51.208;8.904;2023-02-28T03:02:08;3.00;;;1.80;;
8714;SDS011;4394;51.208;8.904;2023-02-28T03:04:59;2.77;;;1.97;;
8714;SDS011;4394;51.208;8.904;2023-02-28T03:07:50;2.10;;;1.60;;
8714;SDS011;4394;51.208;8.904;2023-02-28T03:10:40;2.37;;;1.70;;
8714;SDS011;4394;51.208;8.904;2023-02-28T03:16:51;2.33;;;1.60;;
8714;SDS011;4394;51.208;8.904;2023-02-28T03:19:48;1.60;;;1.50;;
8714;SDS011;4394;51.208;8.904;2023-02-28T03:22:45;2.00;;;1.80;;
8714;SDS011;4394;51.208;8.904;2023-02-28T03:25:42;2.07;;;1.60;;
8714;SDS011;4394;51.208;8.904;2023-02-28T03:28:39;1.43;;;1.30;;
8714;SDS011;4394;51.208;8.904;2023-02-28T03:31:32;1.97;;;1.50;;
8714;SDS011;4394;51.208;8.904;2023-02-28T03:34:28;1.67;;;1.50;;
8714;SDS011;4394;51.208;8.904;2023-02-28T03:37:20;2.00;;;1.80;;
8714;SDS011;4394;51.208;8.904;2023-02-28T03:40:11;3.30;;;1.87;;
8714;SDS011;4394;51.208;8.904;2023-02-28T03:43:06;3.13;;;1.93;;
8714;SDS011;4394;51.208;8.904;2023-02-28T03:45:59;2.70;;;1.83;;
8714;SDS011;4394;51.208;8.904;2023-02-28T03:48:53;2.87;;;1.77;;
8714;SDS011;4394;51.208;8.904;2023-02-28T03:51:44;1.60;;;1.50;;
8714;SDS011;4394;51.208;8.904;2023-02-28T03:54:35;3.03;;;1.90;;
8714;SDS011;4394;51.208;8.904;2023-02-28T03:57:30;2.73;;;1.73;;
8714;SDS011;4394;51.208;8.904;2023-02-28T04:00:27;4.77;;;1.80;;
8714;SDS011;4394;51.208;8.904;2023-02-28T04:03:19;2.70;;;1.40;;
8714;SDS011;4394;51.208;8.904;2023-02-28T04:06:07;1.97;;;1.57;;
8714;SDS011;4394;51.208;8.904;2023-02-28T04:09:00;2.83;;;1.73;;
8714;SDS011;4394;51.208;8.904;2023-02-28T04:11:49;2.83;;;1.67;;
8714;SDS011;4394;51.208;8.904;2023-02-28T04:14:39;2.60;;;1.53;;
8714;SDS011;4394;51.208;8.904;2023-02-28T04:17:28;2.13;;;1.30;;
8714;SDS011;4394;51.208;8.904;2023-02-28T04:20:15;1.73;;;1.60;;
8714;SDS011;4394;51.208;8.904;2023-02-28T04:23:03;3.07;;;1.70;;
8714;SDS011;4394;51.208;8.904;2023-02-28T04:25:54;2.00;;;1.67;;
8714;SDS011;4394;51.208;8.904;2023-02-28T04:28:42;2.23;;;1.47;;
8714;SDS011;4394;51.208;8.904;2023-02-28T04:31:30;2.63;;;1.93;;
8714;SDS011;4394;51.208;8.904;2023-02-28T04:34:20;2.77;;;2.03;;
8714;SDS011;4394;51.208;8.904;2023-02-28T04:37:08;2.03;;;1.50;;
8714;SDS011;4394;51.208;8.904;2023-02-28T04:39:59;1.87;;;1.50;;
8714;SDS011;4394;51.208;8.904;2023-02-28T04:42:47;1.90;;;1.70;;
8714;SDS011;4394;51.208;8.904;2023-02-28T04:45:35;1.50;;;1.40;;
8714;SDS011;4394;51.208;8.904;2023-02-28T04:48:23;2.33;;;1.97;;
8714;SDS011;4394;51.208;8.904;2023-02-28T04:51:12;2.37;;;2.00;;
8714;SDS011;4394;51.208;8.904;2023-02-28T04:54:01;3.30;;;1.83;;
8714;SDS011;4394;51.208;8.904;2023-02-28T04:56:49;4.57;;;1.70;;
8714;SDS011;4394;51.208;8.904;2023-02-28T04:59:37;2.23;;;1.50;;
8714;SDS011;4394;51.208;8.904;2023-02-28T05:02:25;2.77;;;2.00;;
8714;SDS011;4394;51.208;8.904;2023-02-28T05:05:13;3.30;;;2.10;;
8714;SDS011;4394;51.208;8.904;2023-02-28T05:08:05;1.90;;;1.77;;
8714;SDS011;4394;51.208;8.904;2023-02-28T05:10:53;2.10;;;1.60;;
8714;SDS011;4394;51.208;8.904;2023-02-28T05:13:41;2.00;;;1.67;;
8714;SDS011;4394;51.208;8.904;2023-02-28T05:16:29;2.53;;;1.97;;
8714;SDS011;4394;51.208;8.904;2023-02-28T05:19:17;2.13;;;1.37;;
8714;SDS011;4394;51.208;8.904;2023-02-28T05:22:11;2.20;;;1.53;;
8714;SDS011;4394;51.208;8.904;2023-02-28T05:25:02;2.15;;;1.67;;
8714;SDS011;4394;51.208;8.904;2023-02-28T05:27:51;2.77;;;1.60;;
8714;SDS011;4394;51.208;8.904;2023-02-28T05:30:39;2.40;;;1.70;;
8714;SDS011;4394;51.208;8.904;2023-02-28T05:33:27;1.90;;;1.40;;
8714;SDS011;4394;51.208;8.904;2023-02-28T05:36:15;1.50;;;1.40;;
8714;SDS011;4394;51.208;8.904;2023-02-28T05:39:02;2.57;;;1.50;;
8714;SDS011;4394;51.208;8.904;2023-02-28T05:41:53;2.17;;;1.70;;
8714;SDS011;4394;51.208;8.904;2023-02-28T05:44:41;2.23;;;1.70;;
8714;SDS011;4394;51.208;8.904;2023-02-28T05:47:29;2.10;;;1.43;;
8714;SDS011;4394;51.208;8.904;2023-02-28T05:50:17;1.70;;;1.40;;
8714;SDS011;4394;51.208;8.904;2023-02-28T05:53:05;1.43;;;1.33;;
8714;SDS011;4394;51.208;8.904;2023-02-28T05:55:53;1.77;;;1.30;;
8714;SDS011;4394;51.208;8.904;2023-02-28T05:58:42;2.07;;;1.63;;
8714;SDS011;4394;51.208;8.904;2023-02-28T06:01:31;2.13;;;1.60;;
8714;SDS011;4394;51.208;8.904;2023-02-28T06:04:20;3.00;;;1.67;;
8714;SDS011;4394;51.208;8.904;2023-02-28T06:07:17;1.73;;;1.60;;
8714;SDS011;4394;51.208;8.904;2023-02-28T06:10:05;2.37;;;1.70;;
8714;SDS011;4394;51.208;8.904;2023-02-28T06:12:54;2.13;;;1.70;;
8714;SDS011;4394;51.208;8.904;2023-02-28T06:15:43;2.60;;;1.93;;
8714;SDS011;4394;51.208;8.904;2023-02-28T06:18:31;7.87;;;2.93;;
8714;SDS011;4394;51.208;8.904;2023-02-28T06:21:19;3.63;;;2.60;;
8714;SDS011;4394;51.208;8.904;2023-02-28T06:24:07;3.67;;;2.50;;
8714;SDS011;4394;51.208;8.904;2023-02-28T06:26:55;3.40;;;2.60;;
8714;SDS011;4394;51.208;8.904;2023-02-28T06:29:45;4.07;;;2.77;;
8714;SDS011;4394;51.208;8.904;2023-02-28T06:32:34;2.93;;;2.20;;
8714;SDS011;4394;51.208;8.904;2023-02-28T06:35:22;5.43;;;3.40;;
8714;SDS011;4394;51.208;8.904;2023-02-28T06:38:10;5.33;;;3.10;;
8714;SDS011;4394;51.208;8.904;2023-02-28T06:40:59;4.40;;;2.80;;
8714;SDS011;4394;51.208;8.904;2023-02-28T06:43:47;2.57;;;1.93;;
8714;SDS011;4394;51.208;8.904;2023-02-28T06:46:35;2.17;;;1.90;;
8714;SDS011;4394;51.208;8.904;2023-02-28T06:49:25;3.97;;;1.97;;
8714;SDS011;4394;51.208;8.904;2023-02-28T06:52:13;2.53;;;1.90;;
8714;SDS011;4394;51.208;8.904;2023-02-28T06:55:01;2.13;;;1.83;;
8714;SDS011;4394;51.208;8.904;2023-02-28T06:57:49;2.60;;;2.13;;
8714;SDS011;4394;51.208;8.904;2023-02-28T07:00:37;3.47;;;2.20;;
8714;SDS011;4394;51.208;8.904;2023-02-28T07:03:25;3.20;;;1.97;;
8714;SDS011;4394;51.208;8.904;2023-02-28T07:06:14;2.00;;;1.77;;
8714;SDS011;4394;51.208;8.904;2023-02-28T07:09:04;3.33;;;2.43;;
8714;SDS011;4394;51.208;8.904;2023-02-28T07:11:53;2.30;;;2.10;;
8714;SDS011;4394;51.208;8.904;2023-02-28T07:14:42;3.30;;;2.47;;
8714;SDS011;4394;51.208;8.904;2023-02-28T07:17:30;3.30;;;2.33;;
8714;SDS011;4394;51.208;8.904;2023-02-28T07:20:19;3.27;;;1.97;;
8714;SDS011;4394;51.208;8.904;2023-02-28T07:23:08;3.33;;;2.20;;
8714;SDS011;4394;51.208;8.904;2023-02-28T07:25:56;3.40;;;1.90;;
8714;SDS011;4394;51.208;8.904;2023-02-28T07:28:44;2.93;;;2.33;;
8714;SDS011;4394;51.208;8.904;2023-02-28T07:31:34;2.23;;;2.03;;
8714;SDS011;4394;51.208;8.904;2023-02-28T07:34:22;3.10;;;2.50;;
8714;SDS011;4394;51.208;8.904;2023-02-28T07:37:12;2.37;;;2.17;;
8714;SDS011;4394;51.208;8.904;2023-02-28T07:40:01;2.23;;;1.77;;
8714;SDS011;4394;51.208;8.904;2023-02-28T07:42:52;3.10;;;2.43;;
8714;SDS011;4394;51.208;8.904;2023-02-28T07:45:40;4.23;;;2.30;;
8714;SDS011;4394;51.208;8.904;2023-02-28T07:48:28;2.97;;;2.50;;
8714;SDS011;4394;51.208;8.904;2023-02-28T07:51:16;6.13;;;2.33;;
8714;SDS011;4394;51.208;8.904;2023-02-28T07:54:03;4.07;;;2.47;;
8714;SDS011;4394;51.208;8.904;2023-02-28T07:56:53;3.40;;;2.07;;
8714;SDS011;4394;51.208;8.904;2023-02-28T07:59:41;2.83;;;2.33;;
8714;SDS011;4394;51.208;8.904;2023-02-28T08:02:31;3.13;;;2.47;;
8714;SDS011;4394;51.208;8.904;2023-02-28T08:05:19;4.40;;;2.30;;
8714;SDS011;4394;51.208;8.904;2023-02-28T08:08:07;3.33;;;2.20;;
8714;SDS011;4394;51.208;8.904;2023-02-28T08:10:57;4.27;;;2.17;;
8714;SDS011;4394;51.208;8.904;2023-02-28T08:13:47;3.30;;;2.13;;
8714;SDS011;4394;51.208;8.904;2023-02-28T08:16:35;2.60;;;1.83;;
8714;SDS011;4394;51.208;8.904;2023-02-28T08:19:23;2.77;;;2.37;;
8714;SDS011;4394;51.208;8.904;2023-02-28T08:22:11;2.03;;;1.63;;
8714;SDS011;4394;51.208;8.904;2023-02-28T08:24:59;3.37;;;2.27;;
8714;SDS011;4394;51.208;8.904;2023-02-28T08:27:47;5.83;;;2.20;;
8714;SDS011;4394;51.208;8.904;2023-02-28T08:30:38;2.20;;;2.00;;
8714;SDS011;4394;51.208;8.904;2023-02-28T08:33:27;4.00;;;1.70;;
8714;SDS011;4394;51.208;8.904;2023-02-28T08:36:15;2.60;;;1.80;;
8714;SDS011;4394;51.208;8.904;2023-02-28T08:39:03;5.00;;;2.27;;
8714;SDS011;4394;51.208;8.904;2023-02-28T08:41:52;4.03;;;2.03;;
8714;SDS011;4394;51.208;8.904;2023-02-28T08:44:52;2.97;;;2.07;;
8714;SDS011;4394;51.208;8.904;2023-02-28T08:47:41;3.10;;;2.10;;
8714;SDS011;4394;51.208;8.904;2023-02-28T08:50:29;2.20;;;2.00;;
8714;SDS011;4394;51.208;8.904;2023-02-28T08:53:17;4.80;;;2.33;;
8714;SDS011;4394;51.208;8.904;2023-02-28T08:56:06;3.47;;;2.30;;
8714;SDS011;4394;51.208;8.904;2023-02-28T08:58:55;3.63;;;2.43;;
8714;SDS011;4394;51.208;8.904;2023-02-28T09:01:44;7.00;;;2.40;;
8714;SDS011;4394;51.208;8.904;2023-02-28T09:04:34;2.77;;;2.37;;
8714;SDS011;4394;51.208;8.904;2023-02-28T09:07:22;2.47;;;1.90;;
8714;SDS011;4394;51.208;8.904;2023-02-28T09:10:10;2.83;;;2.53;;
8714;SDS011;4394;51.208;8.904;2023-02-28T09:13:00;2.10;;;1.83;;
8714;SDS011;4394;51.208;8.904;2023-02-28T09:15:48;2.77;;;2.37;;
8714;SDS011;4394;51.208;8.904;2023-02-28T09:18:36;3.80;;;2.30;;
8714;SDS011;4394;51.208;8.904;2023-02-28T09:21:26;3.20;;;2.30;;
8714;SDS011;4394;51.208;8.904;2023-02-28T09:24:15;3.30;;;2.80;;
8714;SDS011;4394;51.208;8.904;2023-02-28T09:27:03;6.17;;;2.63;;
8714;SDS011;4394;51.208;8.904;2023-02-28T09:29:52;4.47;;;2.30;;
8714;SDS011;4394;51.208;8.904;2023-02-28T09:32:40;4.10;;;2.47;;
8714;SDS011;4394;51.208;8.904;2023-02-28T09:35:28;4.00;;;2.40;;
8714;SDS011;4394;51.208;8.904;2023-02-28T09:38:18;4.97;;;2.50;;
8714;SDS011;4394;51.208;8.904;2023-02-28T09:41:10;5.40;;;2.33;;
8714;SDS011;4394;51.208;8.904;2023-02-28T09:44:00;5.80;;;2.60;;
8714;SDS011;4394;51.208;8.904;2023-02-28T09:46:51;3.03;;;2.70;;
8714;SDS011;4394;51.208;8.904;2023-02-28T09:49:44;4.03;;;2.50;;
8714;SDS011;4394;51.208;8.904;2023-02-28T09:52:34;4.30;;;2.67;;
8714;SDS011;4394;51.208;8.904;2023-02-28T09:55:27;2.90;;;2.50;;
8714;SDS011;4394;51.208;8.904;2023-02-28T09:58:26;2.80;;;2.23;;
8714;SDS011;4394;51.208;8.904;2023-02-28T10:01:19;3.30;;;2.60;;
8714;SDS011;4394;51.208;8.904;2023-02-28T10:04:14;3.03;;;2.43;;
8714;SDS011;4394;51.208;8.904;2023-02-28T10:07:17;4.37;;;2.53;;
8714;SDS011;4394;51.208;8.904;2023-02-28T10:10:17;3.87;;;2.10;;
8714;SDS011;4394;51.208;8.904;2023-02-28T10:13:14;2.43;;;2.20;;
8714;SDS011;4394;51.208;8.904;2023-02-28T10:16:18;4.40;;;2.47;;
8714;SDS011;4394;51.208;8.904;2023-02-28T10:19:12;4.00;;;2.50;;
8714;SDS011;4394;51.208;8.904;2023-02-28T10:22:05;2.50;;;2.30;;
8714;SDS011;4394;51.208;8.904;2023-02-28T10:24:58;3.50;;;2.47;;
8714;SDS011;4394;51.208;8.904;2023-02-28T10:27:52;5.17;;;4.53;;
8714;SDS011;4394;51.208;8.904;2023-02-28T10:30:47;3.17;;;2.50;;
8714;SDS011;4394;51.208;8.904;2023-02-28T10:33:36;2.83;;;2.40;;
8714;SDS011;4394;51.208;8.904;2023-02-28T10:36:24;2.63;;;2.37;;
8714;SDS011;4394;51.208;8.904;2023-02-28T10:42:28;2.77;;;2.40;;
8714;SDS011;4394;51.208;8.904;2023-02-28T10:45:17;4.47;;;2.60;;
8714;SDS011;4394;51.208;8.904;2023-02-28T10:48:22;3.77;;;2.40;;
8714;SDS011;4394;51.208;8.904;2023-02-28T10:51:16;3.47;;;2.57;;
8714;SDS011;4394;51.208;8.904;2023-02-28T10:54:11;3.83;;;2.63;;
8714;SDS011;4394;51.208;8.904;2023-02-28T10:57:08;4.67;;;2.90;;
8714;SDS011;4394;51.208;8.904;2023-02-28T11:00:06;5.43;;;3.60;;
8714;SDS011;4394;51.208;8.904;2023-02-28T11:03:01;6.27;;;4.43;;
8714;SDS011;4394;51.208;8.904;2023-02-28T11:06:14;3.33;;;3.03;;
8714;SDS011;4394;51.208;8.904;2023-02-28T11:09:06;4.33;;;3.50;;
8714;SDS011;4394;51.208;8.904;2023-02-28T11:12:10;4.13;;;3.37;;
8714;SDS011;4394;51.208;8.904;2023-02-28T11:15:18;5.13;;;3.13;;
8714;SDS011;4394;51.208;8.904;2023-02-28T11:18:18;3.23;;;2.93;;
8714;SDS011;4394;51.208;8.904;2023-02-28T11:21:16;4.43;;;3.13;;
8714;SDS011;4394;51.208;8.904;2023-02-28T11:24:14;4.47;;;3.07;;
8714;SDS011;4394;51.208;8.904;2023-02-28T11:27:14;3.33;;;2.90;;
8714;SDS011;4394;51.208;8.904;2023-02-28T11:30:29;5.83;;;3.17;;
8714;SDS011;4394;51.208;8.904;2023-02-28T11:33:21;4.30;;;3.20;;
8714;SDS011;4394;51.208;8.904;2023-02-28T11:36:12;3.33;;;2.47;;
8714;SDS011;4394;51.208;8.904;2023-02-28T11:39:08;3.87;;;3.00;;
8714;SDS011;4394;51.208;8.904;2023-02-28T11:42:24;2.97;;;2.67;;
8714;SDS011;4394;51.208;8.904;2023-02-28T11:45:26;3.30;;;3.00;;
8714;SDS011;4394;51.208;8.904;2023-02-28T11:48:30;3.00;;;2.73;;
8714;SDS011;4394;51.208;8.904;2023-02-28T11:51:27;4.20;;;3.23;;
8714;SDS011;4394;51.208;8.904;2023-02-28T11:57:51;4.70;;;3.03;;
8714;SDS011;4394;51.208;8.904;2023-02-28T12:00:57;3.83;;;3.20;;
8714;SDS011;4394;51.208;8.904;2023-02-28T12:03:58;5.07;;;3.03;;
8714;SDS011;4394;51.208;8.904;2023-02-28T12:06:57;4.73;;;3.10;;
8714;SDS011;4394;51.208;8.904;2023-02-28T12:09:53;3.23;;;2.90;;
8714;SDS011;4394;51.208;8.904;2023-02-28T12:12:57;4.17;;;3.13;;
8714;SDS011;4394;51.208;8.904;2023-02-28T12:16:10;3.53;;;2.90;;
8714;SDS011;4394;51.208;8.904;2023-02-28T12:19:13;4.37;;;3.17;;
8714;SDS011;4394;51.208;8.904;2023-02-28T12:22:11;4.10;;;2.90;;
8714;SDS011;4394;51.208;8.904;2023-02-28T12:25:21;4.87;;;3.60;;
8714;SDS011;4394;51.208;8.904;2023-02-28T12:28:28;3.70;;;3.20;;
8714;SDS011;4394;51.208;8.904;2023-02-28T12:31:21;6.33;;;3.77;;
8714;SDS011;4394;51.208;8.904;2023-02-28T12:34:16;4.77;;;3.30;;
8714;SDS011;4394;51.208;8.904;2023-02-28T12:37:08;5.67;;;3.30;;
8714;SDS011;4394;51.208;8.904;2023-02-28T12:40:02;4.67;;;3.20;;
8714;SDS011;4394;51.208;8.904;2023-02-28T12:42:56;4.07;;;3.30;;
8714;SDS011;4394;51.208;8.904;2023-02-28T12:45:48;5.40;;;3.53;;
8714;SDS011;4394;51.208;8.904;2023-02-28T12:48:40;3.30;;;3.00;;
8714;SDS011;4394;51.208;8.904;2023-02-28T12:51:32;3.73;;;3.33;;
8714;SDS011;4394;51.208;8.904;2023-02-28T12:54:23;4.17;;;3.20;;
8714;SDS011;4394;51.208;8.904;2023-02-28T12:57:15;4.10;;;3.40;;
8714;SDS011;4394;51.208;8.904;2023-02-28T13:00:10;4.40;;;3.10;;
8714;SDS011;4394;51.208;8.904;2023-02-28T13:03:06;4.10;;;3.30;;
8714;SDS011;4394;51.208;8.904;2023-02-28T13:09:31;6.20;;;3.93;;
8714;SDS011;4394;51.208;8.904;2023-02-28T13:12:19;4.80;;;3.90;;
8714;SDS011;4394;51.208;8.904;2023-02-28T13:15:15;7.70;;;4.70;;
8714;SDS011;4394;51.208;8.904;2023-02-28T13:18:20;5.13;;;3.80;;
8714;SDS011;4394;51.208;8.904;2023-02-28T13:21:23;5.97;;;4.30;;
8714;SDS011;4394;51.208;8.904;2023-02-28T13:27:34;4.17;;;3.20;;
8714;SDS011;4394;51.208;8.904;2023-02-28T13:34:12;3.50;;;3.20;;
8714;SDS011;4394;51.208;8.904;2023-02-28T13:40:27;5.40;;;3.57;;
8714;SDS011;4394;51.208;8.904;2023-02-28T13:43:23;3.53;;;3.00;;
8714;SDS011;4394;51.208;8.904;2023-02-28T13:50:15;4.33;;;3.13;;
8714;SDS011;4394;51.208;8.904;2023-02-28T13:56:36;4.33;;;3.40;;
8714;SDS011;4394;51.208;8.904;2023-02-28T13:59:33;3.73;;;3.00;;
8714;SDS011;4394;51.208;8.904;2023-02-28T14:05:49;4.03;;;3.33;;
8714;SDS011;4394;51.208;8.904;2023-02-28T14:08:57;3.70;;;3.30;;
8714;SDS011;4394;51.208;8.904;2023-02-28T14:11:48;5.67;;;4.50;;
8714;SDS011;4394;51.208;8.904;2023-02-28T14:14:53;5.67;;;3.73;;
8714;SDS011;4394;51.208;8.904;2023-02-28T14:17:43;4.43;;;3.43;;
8714;SDS011;4394;51.208;8.904;2023-02-28T14:20:32;4.38;;;3.97;;
8714;SDS011;4394;51.208;8.904;2023-02-28T14:23:26;4.27;;;3.33;;
8714;SDS011;4394;51.208;8.904;2023-02-28T14:26:28;5.43;;;3.57;;
8714;SDS011;4394;51.208;8.904;2023-02-28T14:29:37;4.60;;;3.57;;
8714;SDS011;4394;51.208;8.904;2023-02-28T14:32:43;4.23;;;3.57;;
8714;SDS011;4394;51.208;8.904;2023-02-28T14:35:40;3.60;;;3.10;;
8714;SDS011;4394;51.208;8.904;2023-02-28T14:38:41;4.30;;;3.53;;
8714;SDS011;4394;51.208;8.904;2023-02-28T14:41:33;5.47;;;3.70;;
8714;SDS011;4394;51.208;8.904;2023-02-28T14:44:25;4.20;;;3.63;;
8714;SDS011;4394;51.208;8.904;2023-02-28T14:47:14;5.00;;;3.87;;
8714;SDS011;4394;51.208;8.904;2023-02-28T14:50:03;5.30;;;4.10;;
8714;SDS011;4394;51.208;8.904;2023-02-28T14:52:52;4.97;;;3.60;;
8714;SDS011;4394;51.208;8.904;2023-02-28T14:55:44;9.23;;;5.70;;
8714;SDS011;4394;51.208;8.904;2023-02-28T14:58:34;4.23;;;3.80;;
8714;SDS011;4394;51.208;8.904;2023-02-28T15:01:22;4.60;;;4.10;;
8714;SDS011;4394;51.208;8.904;2023-02-28T15:04:16;4.60;;;3.83;;
8714;SDS011;4394;51.208;8.904;2023-02-28T15:07:09;6.00;;;3.70;;
8714;SDS011;4394;51.208;8.904;2023-02-28T15:10:08;5.70;;;3.80;;
8714;SDS011;4394;51.208;8.904;2023-02-28T15:12:59;4.10;;;3.70;;
8714;SDS011;4394;51.208;8.904;2023-02-28T15:15:51;7.20;;;4.10;;
8714;SDS011;4394;51.208;8.904;2023-02-28T15:18:50;5.10;;;3.70;;
8714;SDS011;4394;51.208;8.904;2023-02-28T15:21:40;5.83;;;4.00;;
8714;SDS011;4394;51.208;8.904;2023-02-28T15:24:33;5.10;;;3.60;;
8714;SDS011;4394;51.208;8.904;2023-02-28T15:27:25;7.27;;;4.53;;
8714;SDS011;4394;51.208;8.904;2023-02-28T15:30:19;11.07;;;7.07;;
8714;SDS011;4394;51.208;8.904;2023-02-28T15:33:18;12.53;;;6.80;;
8714;SDS011;4394;51.208;8.904;2023-02-28T15:36:12;6.67;;;5.40;;
8714;SDS011;4394;51.208;8.904;2023-02-28T15:39:02;5.37;;;4.23;;
8714;SDS011;4394;51.208;8.904;2023-02-28T15:42:12;9.90;;;6.23;;
8714;SDS011;4394;51.208;8.904;2023-02-28T15:45:04;6.97;;;5.40;;
8714;SDS011;4394;51.208;8.904;2023-02-28T15:47:54;9.43;;;6.43;;
8714;SDS011;4394;51.208;8.904;2023-02-28T15:50:49;9.03;;;5.80;;
8714;SDS011;4394;51.208;8.904;2023-02-28T15:53:40;7.50;;;5.67;;
8714;SDS011;4394;51.208;8.904;2023-02-28T15:56:33;8.03;;;5.40;;
8714;SDS011;4394;51.208;8.904;2023-02-28T15:59:26;7.80;;;5.57;;
8714;SDS011;4394;51.208;8.904;2023-02-28T16:02:17;7.33;;;5.50;;
8714;SDS011;4394;51.208;8.904;2023-02-28T16:08:18;5.97;;;4.10;;
8714;SDS011;4394;51.208;8.904;2023-02-28T16:11:07;6.53;;;5.17;;
8714;SDS011;4394;51.208;8.904;2023-02-28T16:13:56;6.53;;;4.93;;
8714;SDS011;4394;51.208;8.904;2023-02-28T16:16:49;5.67;;;4.53;;
8714;SDS011;4394;51.208;8.904;2023-02-28T16:19:39;7.03;;;5.60;;
8714;SDS011;4394;51.208;8.904;2023-02-28T16:22:28;6.70;;;5.40;;
8714;SDS011;4394;51.208;8.904;2023-02-28T16:25:16;7.23;;;5.27;;
8714;SDS011;4394;51.208;8.904;2023-02-28T16:28:07;7.03;;;4.73;;
8714;SDS011;4394;51.208;8.904;2023-02-28T16:31:00;7.57;;;5.50;;
8714;SDS011;4394;51.208;8.904;2023-02-28T16:33:49;8.10;;;5.07;;
8714;SDS011;4394;51.208;8.904;2023-02-28T16:36:37;7.67;;;5.83;;
8714;SDS011;4394;51.208;8.904;2023-02-28T16:39:26;8.77;;;7.00;;
8714;SDS011;4394;51.208;8.904;2023-02-28T16:42:15;8.80;;;6.83;;
8714;SDS011;4394;51.208;8.904;2023-02-28T16:45:11;10.33;;;6.77;;
8714;SDS011;4394;51.208;8.904;2023-02-28T16:48:04;13.77;;;8.20;;
8714;SDS011;4394;51.208;8.904;2023-02-28T16:50:52;8.50;;;5.73;;
8714;SDS011;4394;51.208;8.904;2023-02-28T16:53:40;6.97;;;5.43;;
8714;SDS011;4394;51.208;8.904;2023-02-28T16:56:29;8.43;;;5.90;;
8714;SDS011;4394;51.208;8.904;2023-02-28T16:59:18;8.20;;;5.90;;
8714;SDS011;4394;51.208;8.904;2023-02-28T17:02:10;6.93;;;5.57;;
8714;SDS011;4394;51.208;8.904;2023-02-28T17:05:00;8.67;;;5.23;;
8714;SDS011;4394;51.208;8.904;2023-02-28T17:07:48;5.80;;;5.03;;
8714;SDS011;4394;51.208;8.904;2023-02-28T17:10:36;7.43;;;5.30;;
8714;SDS011;4394;51.208;8.904;2023-02-28T17:13:25;8.63;;;5.37;;
8714;SDS011;4394;51.208;8.904;2023-02-28T17:16:16;7.33;;;4.90;;
8714;SDS011;4394;51.208;8.904;2023-02-28T17:19:09;7.03;;;5.23;;
8714;SDS011;4394;51.208;8.904;2023-02-28T17:22:00;7.67;;;5.00;;
8714;SDS011;4394;51.208;8.904;2023-02-28T17:24:49;5.97;;;4.80;;
8714;SDS011;4394;51.208;8.904;2023-02-28T17:27:37;6.70;;;4.87;;
8714;SDS011;4394;51.208;8.904;2023-02-28T17:30:26;6.53;;;5.27;;
8714;SDS011;4394;51.208;8.904;2023-02-28T17:33:15;7.03;;;5.07;;
8714;SDS011;4394;51.208;8.904;2023-02-28T17:36:03;10.10;;;5.37;;
8714;SDS011;4394;51.208;8.904;2023-02-28T17:38:52;8.57;;;6.00;;
8714;SDS011;4394;51.208;8.904;2023-02-28T17:41:41;9.87;;;6.00;;
8714;SDS011;4394;51.208;8.904;2023-02-28T17:44:29;8.67;;;5.83;;
8714;SDS011;4394;51.208;8.904;2023-02-28T17:47:18;8.77;;;6.13;;
8714;SDS011;4394;51.208;8.904;2023-02-28T17:50:08;8.80;;;5.87;;
8714;SDS011;4394;51.208;8.904;2023-02-28T17:53:00;6.77;;;5.40;;
8714;SDS011;4394;51.208;8.904;2023-02-28T17:55:47;7.07;;;5.23;;
8714;SDS011;4394;51.208;8.904;2023-02-28T17:58:35;7.30;;;5.37;;
8714;SDS011;4394;51.208;8.904;2023-02-28T18:01:24;6.57;;;5.23;;
8714;SDS011;4394;51.208;8.904;2023-02-28T18:04:13;8.63;;;5.17;;
8714;SDS011;4394;51.208;8.904;2023-02-28T18:07:01;6.97;;;5.17;;
8714;SDS011;4394;51.208;8.904;2023-02-28T18:09:49;7.83;;;5.67;;
8714;SDS011;4394;51.208;8.904;2023-02-28T18:12:37;8.27;;;5.90;;
8714;SDS011;4394;51.208;8.904;2023-02-28T18:15:25;7.53;;;5.50;;
8714;SDS011;4394;51.208;8.904;2023-02-28T18:18:13;6.60;;;4.93;;
8714;SDS011;4394;51.208;8.904;2023-02-28T18:21:04;7.17;;;5.30;;
8714;SDS011;4394;51.208;8.904;2023-02-28T18:23:52;8.47;;;5.77;;
8714;SDS011;4394;51.208;8.904;2023-02-28T18:26:40;8.67;;;5.50;;